Buoy 16555

sailwx.info

Track history (hours):
 
Tides and Currents Weather Stations Pressure Air Temp Water Temp Dewpoint Dewpoint Depression Visibility Wind Speed Wind Dir Waves Ship Positions

Drifting buoy 16555

Last reported at 2016-Jul-24 04:00 UTC. Time now 2016-Jul-24 06:52 UTC.
Position S 34°44' E 084°30'.

Barometer 1039.3 mb
Water temperature 15.3 ° C

Date/timePositionNaut miles runAvg speedWind from/ knotsBaromVisibWave heightAir tempDewpointWater temp
2016-Jul-24 04:00S 34°44' E 084°30'0 0.0 1039.3 15.3
2016-Jul-24 03:00S 34°44' E 084°30'1 1.4 1039.3 15.4
2016-Jul-24 02:00S 34°43' E 084°30'2 0.3 1039.1 15.5
2016-Jul-23 21:00S 34°44' E 084°28'2 0.5 1038.9 14.8
2016-Jul-23 17:00S 34°43' E 084°31'0 0.0 1039.4 15.3
2016-Jul-23 16:00S 34°43' E 084°31'1 0.7 1039.4 15.3
2016-Jul-23 14:00S 34°42' E 084°30'1 0.6 1039.5 15.4
2016-Jul-23 12:00S 34°43' E 084°28'0 0.0 1039.1 15.1
2016-Jul-23 11:00S 34°43' E 084°28'0 0.0 1038.9 15.0
2016-Jul-23 01:00S 34°43' E 084°28'1 1.1 1040.7 15.0
2016-Jul-23 00:00S 34°44' E 084°29'2 0.2 1040.4 14.9
2016-Jul-22 13:00S 34°44' E 084°27'4 0.3 1041.5 15.0
2016-Jul-22 01:00S 34°44' E 084°31'0 0.0 1041.0 15.5
2016-Jul-22 00:00S 34°44' E 084°31'6 0.5 1040.5 15.6
2016-Jul-21 11:00S 34°50' E 084°29'4 0.4 1040.1 15.7
2016-Jul-21 02:00S 34°52' E 084°32'1 0.4 1040.6 15.5
2016-Jul-21 00:00S 34°53' E 084°33'0 0.2 1039.7 15.6
2016-Jul-20 23:00S 34°53' E 084°33'5 0.9 1039.5 15.6
2016-Jul-20 17:00S 34°58' E 084°31'0 0.0 1040.7 15.8
2016-Jul-20 15:00S 34°58' E 084°31'2 0.8 1040.5 15.8
2016-Jul-20 13:00S 34°59' E 084°30'3 0.8 1040.3 15.8
2016-Jul-20 09:00S 35°01' E 084°27'4 0.7 1039.2 15.7
2016-Jul-20 03:00S 35°04' E 084°23'6 0.7 1040.1 15.5
2016-Jul-19 19:00S 35°05' E 084°17'7 0.8 1038.1 15.4
2016-Jul-19 11:00S 35°07' E 084°09'8 0.3 1035.8 15.4
2016-Jul-18 12:00S 35°11' E 084°01'1 0.7 1032.4 15.7
2016-Jul-18 11:00S 35°11' E 084°01'0 0.0 1032.4 15.7
2016-Jul-18 10:00S 35°11' E 084°01'1 1.0 1032.6 15.7
2016-Jul-18 09:00S 35°11' E 084°00'2 0.2 1032.5 15.7
2016-Jul-18 02:00S 35°11' E 083°58'1 0.3 1034.8 15.8
2016-Jul-18 00:00S 35°11' E 083°58'6 0.5 1034.0 15.7
2016-Jul-17 12:00S 35°09' E 083°51'1 0.7 1034.7 15.9
2016-Jul-17 11:00S 35°09' E 083°50'1 0.3 1034.3 15.9
2016-Jul-17 08:00S 35°10' E 083°49'3 0.7 1033.6 15.9
2016-Jul-17 04:00S 35°11' E 083°46'1 0.3 1034.5 15.8
2016-Jul-17 02:00S 35°11' E 083°45'0 0.4 1033.6 15.7
2016-Jul-17 01:00S 35°11' E 083°45'1 0.1 1033.0 15.7
2016-Jul-16 17:00S 35°12' E 083°45'1 0.3 1030.7 15.6
2016-Jul-16 13:00S 35°12' E 083°43'4 0.3 1029.0 15.6
2016-Jul-16 00:00S 35°09' E 083°40'1 0.4 1023.7 15.6
2016-Jul-15 21:00S 35°10' E 083°39'2 0.6 1022.2 15.8
2016-Jul-15 17:00S 35°11' E 083°36'1 0.8 1020.3 15.9
2016-Jul-15 16:00S 35°12' E 083°36'0 0.4 1020.1 15.9
2016-Jul-15 15:00S 35°12' E 083°36'1 0.2 1019.7 15.9
2016-Jul-15 10:00S 35°11' E 083°34'0 0.2 1015.7 15.9
2016-Jul-15 08:00S 35°11' E 083°34'3 0.6 1014.5 16.0
2016-Jul-15 03:00S 35°09' E 083°31'2 0.8 1013.0 15.8
2016-Jul-15 00:00S 35°10' E 083°28'1 0.2 1009.7 15.4
2016-Jul-14 21:00S 35°10' E 083°28'8 1.1 1007.9 15.2
2016-Jul-14 14:00S 35°14' E 083°20'0 0.0 1005.6 15.0
2016-Jul-14 13:00S 35°14' E 083°20'0 0.0 1005.0 14.9
2016-Jul-14 12:00S 35°14' E 083°20'8 1.0 1003.9 15.0
2016-Jul-14 04:00S 35°16' E 083°10'   1006.0 15.1
Track history (hours):
 
Tides and Currents Weather Stations Pressure Air Temp Water Temp Dewpoint Dewpoint Depression Visibility Wind Speed Wind Dir Waves Ship Positions

Drifting buoy 16555

Last reported at 2016-Jul-24 04:00 UTC. Time now 2016-Jul-24 06:52 UTC.
Position S 34°44' E 084°30'.

Barometer 1039.3 mb
Water temperature 15.3 ° C

Date/timePositionNaut miles runAvg speedWind from/ knotsBaromVisibWave heightAir tempDewpointWater temp
2016-Jul-24 04:00S 34°44' E 084°30'0 0.0 1039.3 15.3
2016-Jul-24 03:00S 34°44' E 084°30'1 1.4 1039.3 15.4
2016-Jul-24 02:00S 34°43' E 084°30'2 0.3 1039.1 15.5
2016-Jul-23 21:00S 34°44' E 084°28'2 0.5 1038.9 14.8
2016-Jul-23 17:00S 34°43' E 084°31'0 0.0 1039.4 15.3
2016-Jul-23 16:00S 34°43' E 084°31'1 0.7 1039.4 15.3
2016-Jul-23 14:00S 34°42' E 084°30'1 0.6 1039.5 15.4
2016-Jul-23 12:00S 34°43' E 084°28'0 0.0 1039.1 15.1
2016-Jul-23 11:00S 34°43' E 084°28'0 0.0 1038.9 15.0
2016-Jul-23 01:00S 34°43' E 084°28'1 1.1 1040.7 15.0
2016-Jul-23 00:00S 34°44' E 084°29'2 0.2 1040.4 14.9
2016-Jul-22 13:00S 34°44' E 084°27'4 0.3 1041.5 15.0
2016-Jul-22 01:00S 34°44' E 084°31'0 0.0 1041.0 15.5
2016-Jul-22 00:00S 34°44' E 084°31'6 0.5 1040.5 15.6
2016-Jul-21 11:00S 34°50' E 084°29'4 0.4 1040.1 15.7
2016-Jul-21 02:00S 34°52' E 084°32'1 0.4 1040.6 15.5
2016-Jul-21 00:00S 34°53' E 084°33'0 0.2 1039.7 15.6
2016-Jul-20 23:00S 34°53' E 084°33'5 0.9 1039.5 15.6
2016-Jul-20 17:00S 34°58' E 084°31'0 0.0 1040.7 15.8
2016-Jul-20 15:00S 34°58' E 084°31'2 0.8 1040.5 15.8
2016-Jul-20 13:00S 34°59' E 084°30'3 0.8 1040.3 15.8
2016-Jul-20 09:00S 35°01' E 084°27'4 0.7 1039.2 15.7
2016-Jul-20 03:00S 35°04' E 084°23'6 0.7 1040.1 15.5
2016-Jul-19 19:00S 35°05' E 084°17'7 0.8 1038.1 15.4
2016-Jul-19 11:00S 35°07' E 084°09'8 0.3 1035.8 15.4
2016-Jul-18 12:00S 35°11' E 084°01'1 0.7 1032.4 15.7
2016-Jul-18 11:00S 35°11' E 084°01'0 0.0 1032.4 15.7
2016-Jul-18 10:00S 35°11' E 084°01'1 1.0 1032.6 15.7
2016-Jul-18 09:00S 35°11' E 084°00'2 0.2 1032.5 15.7
2016-Jul-18 02:00S 35°11' E 083°58'1 0.3 1034.8 15.8
2016-Jul-18 00:00S 35°11' E 083°58'6 0.5 1034.0 15.7
2016-Jul-17 12:00S 35°09' E 083°51'1 0.7 1034.7 15.9
2016-Jul-17 11:00S 35°09' E 083°50'1 0.3 1034.3 15.9
2016-Jul-17 08:00S 35°10' E 083°49'3 0.7 1033.6 15.9
2016-Jul-17 04:00S 35°11' E 083°46'1 0.3 1034.5 15.8
2016-Jul-17 02:00S 35°11' E 083°45'0 0.4 1033.6 15.7
2016-Jul-17 01:00S 35°11' E 083°45'1 0.1 1033.0 15.7
2016-Jul-16 17:00S 35°12' E 083°45'1 0.3 1030.7 15.6
2016-Jul-16 13:00S 35°12' E 083°43'4 0.3 1029.0 15.6
2016-Jul-16 00:00S 35°09' E 083°40'1 0.4 1023.7 15.6
2016-Jul-15 21:00S 35°10' E 083°39'2 0.6 1022.2 15.8
2016-Jul-15 17:00S 35°11' E 083°36'1 0.8 1020.3 15.9
2016-Jul-15 16:00S 35°12' E 083°36'0 0.4 1020.1 15.9
2016-Jul-15 15:00S 35°12' E 083°36'1 0.2 1019.7 15.9
2016-Jul-15 10:00S 35°11' E 083°34'0 0.2 1015.7 15.9
2016-Jul-15 08:00S 35°11' E 083°34'3 0.6 1014.5 16.0
2016-Jul-15 03:00S 35°09' E 083°31'2 0.8 1013.0 15.8
2016-Jul-15 00:00S 35°10' E 083°28'1 0.2 1009.7 15.4
2016-Jul-14 21:00S 35°10' E 083°28'8 1.1 1007.9 15.2
2016-Jul-14 14:00S 35°14' E 083°20'0 0.0 1005.6 15.0
2016-Jul-14 13:00S 35°14' E 083°20'0 0.0 1005.0 14.9
2016-Jul-14 12:00S 35°14' E 083°20'8 1.0 1003.9 15.0
2016-Jul-14 04:00S 35°16' E 083°10'   1006.0 15.1

Dump ship's entire track history